Aérodrome :







RETROUVEZ-NOUS SUR...

 
LOGIN :

S'inscrire | Disclaimer

   EN    FR    IT 

 









Légende :    VFR   VFR Marginal   IFR   IFR Intensif   IFR Très Intensif
Visi : 
Plafond : 
>= 8 km
>= 3000ft
5 à 8 km
1000 à 3000 ft
1500m à 5 km
500 à 1000 ft
800 à 1500m
200 à 500 ft
< 800m
< 200 ft
Symboles :   Orages  Brouillard  Fortes neiges  Fortes précipitations  Vent > 20 kt






- Altitude de l'aérodrome : 228 ft


KFSO - Franklin County State

DERNIER METAR :
  • 261736Z AUTO 33004KT 10SM -SN OVC030 00/M04 A3003 RMK AO2 T10031042

METARs EXPIRÉS :
  • 261716Z AUTO 32003KT 10SM OVC032 00/M04 A3004 RMK AO2 T10011044
  • 261656Z AUTO 34003KT 10SM OVC032 00/M04 A3004 RMK AO2 T00001043
  • 261636Z AUTO 33003KT 10SM OVC034 00/M04 A3005 RMK AO2 T00001042
  • 261615Z AUTO 32003KT 10SM OVC040 00/M05 A3006 RMK AO2 T10021047
  • 261556Z AUTO 00000KT 10SM OVC042 00/M05 A3006 RMK AO2 T00001046
  • 261535Z AUTO 35005KT 10SM OVC044 00/M05 A3005 RMK AO2 T00001048
  • 261516Z AUTO 34005KT 10SM SCT037 OVC044 00/M05 A3005 RMK AO2 T00001048
  • 261455Z AUTO 01006KT 10SM BKN039 OVC046 00/M05 A3005 RMK AO2 T00001048

TAF N/A



MET'MAP, la Météo Aéronautique d'un coup d'oeil ! - Copyright ORBIFLY Décembre 2007 - Disclaimer

ORBIFLY MET'MAP TEAM :

Programmation & Développement : Alexandra Zaïnal
Sur une idée originale de : Baudouin d'Aumeries
Assistance à la programmation : Marc-Olivier Méhu
Soutien technique & logistique : Manuel Goepfert

Contact : metmap@orbifly.com




SOURCES & CREDITS :

   NOAA